createdAt,value
2022-12-15T00:02:18.705Z,81.45
2022-12-15T00:05:06.011Z,82.12
2022-12-15T00:07:51.397Z,82.01
2022-12-15T00:10:36.754Z,82.36
2022-12-15T00:13:22.067Z,82.07
2022-12-15T00:16:07.602Z,81.30
2022-12-15T00:18:53.081Z,81.59
2022-12-15T00:21:39.622Z,81.60
2022-12-15T00:24:24.952Z,81.13
2022-12-15T00:27:10.111Z,81.67
2022-12-15T00:29:55.605Z,81.65
2022-12-15T00:32:40.840Z,81.39
2022-12-15T00:35:26.595Z,81.79
2022-12-15T00:38:13.344Z,81.53
2022-12-15T00:40:41.037Z,81.40
2022-12-15T00:43:11.901Z,82.05
2022-12-15T00:45:57.646Z,81.34
2022-12-15T00:48:25.341Z,81.83
2022-12-15T00:50:54.904Z,81.72
2022-12-15T00:53:42.648Z,81.89
2022-12-15T00:56:28.460Z,81.58
2022-12-15T00:59:14.190Z,82.63
2022-12-15T01:01:59.691Z,82.04
2022-12-15T01:04:45.301Z,82.11
2022-12-15T01:07:30.624Z,82.54
2022-12-15T01:10:17.154Z,82.06
2022-12-15T01:13:02.883Z,82.50
2022-12-15T01:15:48.196Z,82.29
2022-12-15T01:18:33.800Z,82.40
2022-12-15T01:21:03.265Z,81.99
2022-12-15T01:23:32.531Z,82.21
2022-12-15T01:26:02.343Z,81.95
2022-12-15T01:28:30.087Z,82.55
2022-12-15T01:30:57.804Z,82.55
2022-12-15T01:33:25.553Z,82.13
2022-12-15T01:35:57.768Z,82.42
2022-12-15T01:38:25.953Z,82.28
2022-12-15T01:40:55.028Z,82.62
2022-12-15T01:43:27.415Z,82.41
2022-12-15T01:45:58.509Z,82.92
2022-12-15T01:48:42.956Z,82.66
2022-12-15T01:51:19.015Z,82.66
2022-12-15T01:53:53.839Z,83.32
2022-12-15T01:56:24.385Z,83.53
2022-12-15T01:58:55.844Z,83.28
2022-12-15T02:01:23.807Z,83.72
2022-12-15T02:03:52.212Z,83.05
2022-12-15T02:06:22.752Z,83.09
2022-12-15T02:08:53.021Z,83.45
2022-12-15T02:11:55.456Z,83.51
2022-12-15T02:14:38.565Z,83.40
2022-12-15T02:17:18.693Z,83.42
2022-12-15T02:20:35.504Z,83.40
2022-12-15T02:23:35.231Z,84.01
2022-12-15T02:26:49.497Z,83.61
2022-12-15T02:29:33.672Z,83.74
2022-12-15T02:32:08.352Z,82.81
2022-12-15T02:34:43.489Z,83.40
2022-12-15T02:37:15.655Z,83.57
2022-12-15T02:39:43.427Z,83.41
2022-12-15T02:42:13.381Z,82.51
2022-12-15T02:44:47.823Z,83.27
2022-12-15T02:47:29.540Z,82.89
2022-12-15T02:50:13.137Z,83.29
2022-12-15T02:52:55.249Z,83.39
2022-12-15T02:55:35.535Z,83.21
2022-12-15T02:58:07.619Z,83.34
2022-12-15T03:00:40.649Z,83.35
2022-12-15T03:03:10.681Z,83.34
2022-12-15T03:05:38.885Z,83.03
2022-12-15T03:08:06.636Z,83.12
2022-12-15T03:10:34.255Z,83.38
2022-12-15T03:13:02.299Z,82.97
2022-12-15T03:15:35.020Z,83.03
2022-12-15T03:18:03.292Z,83.65
2022-12-15T03:20:32.280Z,83.34
2022-12-15T03:22:59.895Z,83.67
2022-12-15T03:25:27.536Z,83.52
2022-12-15T03:27:55.168Z,83.45
2022-12-15T03:30:22.859Z,83.38
2022-12-15T03:32:50.455Z,83.33
2022-12-15T03:35:18.119Z,83.29
2022-12-15T03:37:47.116Z,83.29
2022-12-15T03:40:17.503Z,82.99
2022-12-15T03:42:51.699Z,83.22
2022-12-15T03:45:21.131Z,83.24
2022-12-15T03:47:49.294Z,83.73
2022-12-15T03:50:19.284Z,83.52
2022-12-15T03:52:51.461Z,83.51
2022-12-15T03:55:19.499Z,83.37
2022-12-15T03:57:47.120Z,83.44
2022-12-15T04:00:16.128Z,83.82
2022-12-15T04:02:44.233Z,83.27
2022-12-15T04:05:16.960Z,83.87
2022-12-15T04:07:44.614Z,83.69
2022-12-15T04:10:13.718Z,83.62
2022-12-15T04:12:41.477Z,83.62
2022-12-15T04:15:10.835Z,83.60
2022-12-15T04:17:39.490Z,83.69
2022-12-15T04:20:10.684Z,83.96
2022-12-15T04:22:39.357Z,84.25
2022-12-15T04:25:26.402Z,84.01
2022-12-15T04:28:13.448Z,84.99
2022-12-15T04:31:03.083Z,85.20
2022-12-15T04:33:48.842Z,85.80
2022-12-15T04:36:35.295Z,86.00
2022-12-15T04:39:23.268Z,87.05
2022-12-15T04:42:08.528Z,86.37
2022-12-15T04:44:55.469Z,86.07
2022-12-15T04:47:40.824Z,86.08
2022-12-15T04:50:26.540Z,85.82
2022-12-15T04:53:12.031Z,85.87
2022-12-15T04:55:57.385Z,85.43
2022-12-15T04:58:42.912Z,85.58
2022-12-15T05:01:29.594Z,85.02
2022-12-15T05:04:14.819Z,84.75
2022-12-15T05:07:00.164Z,84.80
2022-12-15T05:09:45.490Z,84.95
2022-12-15T05:12:30.764Z,85.17
2022-12-15T05:15:16.208Z,85.34
2022-12-15T05:18:02.670Z,85.49
2022-12-15T05:20:49.837Z,84.98
2022-12-15T05:23:35.307Z,85.38
2022-12-15T05:26:20.627Z,85.25
2022-12-15T05:29:06.036Z,85.57
2022-12-15T05:31:51.809Z,85.24
2022-12-15T05:34:22.417Z,85.51
2022-12-15T05:36:50.286Z,85.23
2022-12-15T05:39:18.100Z,85.46
2022-12-15T05:41:46.031Z,85.42
2022-12-15T05:44:13.739Z,85.41
2022-12-15T05:46:41.651Z,85.39
2022-12-15T05:49:11.435Z,85.19
2022-12-15T05:51:41.714Z,84.94
2022-12-15T05:54:09.895Z,85.06
2022-12-15T05:56:38.000Z,85.08
2022-12-15T05:59:06.493Z,85.46
2022-12-15T06:01:35.459Z,85.52
2022-12-15T06:04:03.429Z,85.66
2022-12-15T06:06:31.267Z,85.16
2022-12-15T06:09:00.349Z,85.36
2022-12-15T06:11:28.014Z,85.41
2022-12-15T06:13:57.983Z,85.71
2022-12-15T06:16:28.877Z,85.47
2022-12-15T06:18:58.781Z,85.58
2022-12-15T06:21:29.218Z,85.73
2022-12-15T06:23:57.719Z,85.62
2022-12-15T06:26:28.563Z,85.76
2022-12-15T06:28:58.167Z,85.48
2022-12-15T06:31:27.039Z,85.28
2022-12-15T06:34:01.614Z,85.14
2022-12-15T06:36:31.117Z,85.57
2022-12-15T06:39:00.472Z,85.68
2022-12-15T06:41:31.032Z,85.65
2022-12-15T06:43:59.418Z,85.76
2022-12-15T06:46:28.224Z,86.12
2022-12-15T06:48:56.515Z,86.34
2022-12-15T06:51:24.598Z,85.80
2022-12-15T06:53:54.033Z,86.22
2022-12-15T06:56:30.425Z,86.05
2022-12-15T06:59:02.269Z,85.91
2022-12-15T07:01:30.924Z,85.92
2022-12-15T07:04:01.359Z,85.84
2022-12-15T07:06:34.254Z,86.04
2022-12-15T07:09:01.926Z,85.66
2022-12-15T07:11:29.744Z,85.70
2022-12-15T07:13:57.351Z,85.73
2022-12-15T07:16:26.763Z,85.36
2022-12-15T07:18:54.558Z,85.76
2022-12-15T07:21:22.294Z,85.59
2022-12-15T07:23:55.246Z,85.72
2022-12-15T07:26:23.933Z,85.80
2022-12-15T07:28:51.710Z,85.63
2022-12-15T07:31:19.471Z,85.51
2022-12-15T07:33:49.111Z,85.90
2022-12-15T07:36:16.807Z,85.74
2022-12-15T07:38:45.512Z,85.95
2022-12-15T07:41:21.087Z,86.64
2022-12-15T07:43:49.238Z,86.50
2022-12-15T07:46:17.502Z,86.46
2022-12-15T07:48:50.121Z,86.38
2022-12-15T07:51:21.186Z,86.56
2022-12-15T07:53:50.527Z,86.27
2022-12-15T07:56:19.718Z,86.36
2022-12-15T07:58:47.447Z,86.51
2022-12-15T08:01:15.681Z,86.32
2022-12-15T08:03:43.564Z,86.62
2022-12-15T08:06:13.278Z,86.23
2022-12-15T08:08:42.593Z,86.62
2022-12-15T08:11:11.984Z,86.30
2022-12-15T08:16:29.066Z,86.89
2022-12-15T08:18:57.416Z,86.28
2022-12-15T08:21:25.109Z,86.55
2022-12-15T08:23:54.303Z,86.57
2022-12-15T08:26:26.838Z,86.48
2022-12-15T08:29:11.812Z,86.66
2022-12-15T08:31:45.511Z,86.33
2022-12-15T08:34:13.240Z,86.35
2022-12-15T08:36:40.908Z,86.52
2022-12-15T08:39:09.902Z,86.41
2022-12-15T08:41:37.396Z,87.54
2022-12-15T08:44:05.295Z,86.66
2022-12-15T08:46:35.020Z,86.20
2022-12-15T08:49:04.044Z,87.02
2022-12-15T08:51:33.624Z,87.00
2022-12-15T08:54:01.657Z,86.43
2022-12-15T08:56:31.058Z,87.02
2022-12-15T08:59:01.269Z,87.25
2022-12-15T09:01:31.855Z,86.34
2022-12-15T09:04:01.410Z,86.86
2022-12-15T09:06:31.890Z,86.35
2022-12-15T09:09:01.335Z,85.67
2022-12-15T09:11:31.646Z,85.86
2022-12-15T09:13:59.311Z,86.38
2022-12-15T09:16:27.970Z,87.45
2022-12-15T09:18:56.192Z,87.66
2022-12-15T09:21:26.643Z,86.72
2022-12-15T09:23:55.777Z,86.21
2022-12-15T09:26:24.447Z,85.99
2022-12-15T09:28:55.108Z,85.91
2022-12-15T09:31:25.014Z,85.87
2022-12-15T09:33:55.192Z,85.47
2022-12-15T09:36:23.237Z,85.47
2022-12-15T09:38:50.995Z,85.07
2022-12-15T09:41:23.676Z,85.53
2022-12-15T09:43:58.326Z,85.17
2022-12-15T09:46:35.755Z,84.55
2022-12-15T09:49:07.173Z,84.89
2022-12-15T09:51:40.284Z,84.64
2022-12-15T09:54:11.472Z,84.67
2022-12-15T09:56:43.773Z,84.13
2022-12-15T09:59:30.092Z,84.27
2022-12-15T10:02:23.233Z,83.96
2022-12-15T10:04:58.730Z,83.34
2022-12-15T10:07:29.859Z,82.74
2022-12-15T10:09:57.752Z,82.75
2022-12-15T10:12:30.615Z,82.77
2022-12-15T10:15:13.376Z,82.03
2022-12-15T10:17:48.321Z,82.29
2022-12-15T10:20:20.429Z,81.88
2022-12-15T10:22:50.302Z,80.66
2022-12-15T10:25:29.429Z,81.34
2022-12-15T10:28:25.929Z,80.71
2022-12-15T10:31:00.101Z,80.99
2022-12-15T10:33:34.100Z,80.65
2022-12-15T10:36:02.306Z,80.73
2022-12-15T10:38:37.674Z,80.94
2022-12-15T10:41:07.206Z,80.17
2022-12-15T10:43:37.163Z,79.90
2022-12-15T10:46:13.734Z,79.66
2022-12-15T10:48:42.220Z,79.82
2022-12-15T10:51:18.094Z,79.08
2022-12-15T10:53:50.641Z,79.50
2022-12-15T10:56:26.128Z,79.23
2022-12-15T10:59:00.978Z,78.69
2022-12-15T11:01:31.760Z,77.77
2022-12-15T11:03:59.715Z,75.92
2022-12-15T11:06:29.914Z,75.43
2022-12-15T11:09:08.528Z,75.17
2022-12-15T11:12:03.716Z,75.13
2022-12-15T11:14:44.066Z,74.90
2022-12-15T11:17:17.354Z,68.60
2022-12-15T11:19:55.227Z,69.38
2022-12-15T11:22:38.436Z,71.67
2022-12-15T11:25:17.715Z,70.60
2022-12-15T11:27:46.189Z,69.86
2022-12-15T11:30:15.727Z,64.70
2022-12-15T11:32:48.850Z,71.53
2022-12-15T11:35:20.566Z,71.73
2022-12-15T11:37:52.920Z,71.52
2022-12-15T11:40:34.918Z,69.00
2022-12-15T11:43:14.004Z,70.49
2022-12-15T11:45:51.075Z,67.45
2022-12-15T11:48:23.384Z,66.77
2022-12-15T11:50:56.770Z,67.38
2022-12-15T11:53:57.846Z,63.49
2022-12-15T11:56:32.240Z,67.16
2022-12-15T11:59:23.309Z,61.16
2022-12-15T12:02:08.616Z,64.85
2022-12-15T12:04:50.737Z,69.21
2022-12-15T12:07:28.216Z,68.12
2022-12-15T12:10:10.043Z,71.51
2022-12-15T12:12:44.927Z,71.85
2022-12-15T12:15:27.791Z,71.96
2022-12-15T12:18:02.554Z,73.04
2022-12-15T12:20:42.997Z,71.39
2022-12-15T12:23:17.946Z,74.23
2022-12-15T12:26:01.105Z,73.62
2022-12-15T12:28:36.844Z,74.80
2022-12-15T12:31:06.776Z,76.69
2022-12-15T12:33:39.600Z,77.52
2022-12-15T12:36:12.083Z,76.71
2022-12-15T12:38:46.188Z,77.59
2022-12-15T12:41:27.312Z,77.40
2022-12-15T12:43:58.114Z,78.32
2022-12-15T12:46:31.070Z,78.57
2022-12-15T12:49:07.424Z,78.73
2022-12-15T12:51:37.775Z,79.31
2022-12-15T12:54:40.259Z,78.74
2022-12-15T12:57:31.686Z,78.79
2022-12-15T13:00:01.541Z,79.49
2022-12-15T13:05:39.076Z,78.62
2022-12-15T13:08:51.773Z,79.10
2022-12-15T13:12:03.138Z,77.71
2022-12-15T13:14:54.456Z,77.83
2022-12-15T13:17:32.135Z,77.73
2022-12-15T13:20:30.910Z,77.71
2022-12-15T13:23:32.234Z,79.00
2022-12-15T13:26:13.575Z,78.59
2022-12-15T13:28:45.902Z,79.82
2022-12-15T13:31:33.317Z,77.26
2022-12-15T13:34:16.928Z,79.32
2022-12-15T13:36:55.971Z,79.35
2022-12-15T13:39:52.873Z,79.43
2022-12-15T13:42:37.298Z,78.45
2022-12-15T13:45:16.096Z,77.47
2022-12-15T13:47:54.624Z,76.77
2022-12-15T13:50:32.716Z,78.18
2022-12-15T13:56:01.987Z,78.19
2022-12-15T13:58:34.727Z,79.22
2022-12-15T14:01:03.721Z,78.38
2022-12-15T14:03:31.929Z,79.12
2022-12-15T14:06:00.903Z,78.93
2022-12-15T14:08:31.385Z,79.13
2022-12-15T14:11:07.030Z,79.33
2022-12-15T14:13:50.487Z,80.21
2022-12-15T14:16:22.904Z,80.53
2022-12-15T14:19:05.733Z,80.00
2022-12-15T14:21:33.383Z,79.59
2022-12-15T14:24:37.055Z,79.26
2022-12-15T14:26:50.517Z,80.18
2022-12-15T14:29:19.891Z,80.37
2022-12-15T14:31:51.915Z,80.22
2022-12-15T14:34:30.234Z,79.41
2022-12-15T14:37:02.461Z,79.68
2022-12-15T14:39:37.376Z,79.55
2022-12-15T14:42:07.585Z,80.68
2022-12-15T14:44:40.515Z,80.57
2022-12-15T14:47:21.418Z,80.55
2022-12-15T14:49:49.509Z,80.54
2022-12-15T14:52:29.201Z,80.37
2022-12-15T14:54:58.839Z,80.72
2022-12-15T14:57:29.253Z,80.79
2022-12-15T14:59:58.256Z,80.39
2022-12-15T15:02:28.515Z,79.80
2022-12-15T15:03:07.287Z,79.47
2022-12-15T15:03:07.668Z,78.06
2022-12-15T15:05:03.009Z,80.37
2022-12-15T15:07:33.076Z,80.18
2022-12-15T15:10:02.319Z,80.64
2022-12-15T15:12:43.409Z,80.56
2022-12-15T15:15:17.000Z,81.33
2022-12-15T15:17:49.599Z,81.31
2022-12-15T15:20:21.500Z,81.83
2022-12-15T15:23:04.496Z,81.60
2022-12-15T15:25:41.418Z,81.50
2022-12-15T15:28:23.009Z,81.14
2022-12-15T15:30:56.547Z,81.83
2022-12-15T15:33:26.089Z,81.97
2022-12-15T15:35:56.400Z,82.53
2022-12-15T15:38:29.646Z,82.89
2022-12-15T15:40:59.178Z,82.92
2022-12-15T15:43:28.612Z,82.98
2022-12-15T15:46:02.676Z,83.12
2022-12-15T15:48:34.901Z,83.12
2022-12-15T15:51:03.744Z,83.01
2022-12-15T15:53:33.375Z,82.65
2022-12-15T15:56:01.992Z,82.78
2022-12-15T15:58:30.023Z,82.67
2022-12-15T16:00:59.390Z,83.38
2022-12-15T16:03:27.249Z,83.28
2022-12-15T16:05:55.161Z,83.25
2022-12-15T16:08:29.231Z,83.24
2022-12-15T16:10:57.120Z,83.40
2022-12-15T16:13:26.513Z,83.83
2022-12-15T16:15:54.824Z,83.83
2022-12-15T16:18:23.825Z,83.64
2022-12-15T16:20:52.795Z,83.47
2022-12-15T16:23:23.738Z,83.74
2022-12-15T16:25:53.827Z,83.90
2022-12-15T16:28:23.033Z,83.12
2022-12-15T16:30:51.369Z,83.59
2022-12-15T16:33:20.858Z,83.50
2022-12-15T16:35:51.152Z,82.95
2022-12-15T16:38:26.403Z,83.06
2022-12-15T16:40:55.308Z,83.02
2022-12-15T16:43:24.802Z,83.48
2022-12-15T16:45:54.789Z,83.18
2022-12-15T16:48:23.050Z,83.18
2022-12-15T16:50:55.191Z,83.55
2022-12-15T16:53:27.314Z,83.52
2022-12-15T16:55:56.463Z,83.32
2022-12-15T16:58:25.886Z,83.00
2022-12-15T17:00:54.754Z,83.67
2022-12-15T17:03:25.929Z,83.46
2022-12-15T17:05:57.209Z,83.30
2022-12-15T17:08:28.047Z,84.04
2022-12-15T17:10:55.979Z,83.54
2022-12-15T17:13:36.520Z,83.77
2022-12-15T17:16:05.767Z,84.03
2022-12-15T17:18:33.969Z,84.17
2022-12-15T17:21:07.743Z,84.53
2022-12-15T17:23:36.361Z,84.47
2022-12-15T17:26:27.533Z,84.49
2022-12-15T17:28:52.538Z,84.68
2022-12-15T17:31:21.796Z,84.37
2022-12-15T17:33:50.066Z,83.92
2022-12-15T17:36:22.506Z,84.74
2022-12-15T17:38:55.361Z,84.31
2022-12-15T17:41:57.599Z,83.83
2022-12-15T17:44:37.176Z,84.07
2022-12-15T17:47:07.282Z,84.04
2022-12-15T17:49:37.612Z,84.39
2022-12-15T17:52:16.273Z,84.92
2022-12-15T17:54:44.051Z,84.55
2022-12-15T17:57:12.667Z,84.47
2022-12-15T17:59:40.168Z,85.25
2022-12-15T18:02:11.272Z,84.88
2022-12-15T18:04:39.017Z,84.83
2022-12-15T18:07:21.385Z,84.66
2022-12-15T18:09:49.771Z,84.71
2022-12-15T18:12:19.353Z,84.94
2022-12-15T18:14:47.060Z,84.48
2022-12-15T18:17:15.295Z,84.86
2022-12-15T18:19:42.934Z,84.76
2022-12-15T18:22:15.317Z,85.80
2022-12-15T18:24:43.204Z,85.45
2022-12-15T18:27:21.844Z,84.79
2022-12-15T18:29:49.607Z,85.08
2022-12-15T18:32:18.084Z,85.07
2022-12-15T18:34:46.615Z,85.39
2022-12-15T18:37:17.519Z,86.44
2022-12-15T18:39:46.044Z,85.52
2022-12-15T18:42:16.315Z,85.60
2022-12-15T18:44:47.437Z,85.40
2022-12-15T18:47:17.803Z,84.85
2022-12-15T18:49:45.968Z,85.15
2022-12-15T18:52:18.825Z,85.50
2022-12-15T18:54:47.943Z,85.61
2022-12-15T18:57:27.938Z,85.45
2022-12-15T18:59:58.368Z,86.02
2022-12-15T19:02:26.206Z,85.40
2022-12-15T19:04:53.998Z,85.51
2022-12-15T19:07:23.068Z,86.44
2022-12-15T19:09:50.871Z,86.18
2022-12-15T19:12:18.683Z,86.06
2022-12-15T19:14:47.481Z,85.98
2022-12-15T19:17:35.182Z,86.00
2022-12-15T19:20:22.408Z,86.36
2022-12-15T19:22:53.295Z,86.09
2022-12-15T19:25:25.740Z,86.46
2022-12-15T19:27:58.450Z,86.53
2022-12-15T19:30:28.191Z,86.57
2022-12-15T19:32:56.148Z,86.89
2022-12-15T19:35:24.720Z,86.76
2022-12-15T19:37:55.446Z,86.95
2022-12-15T19:40:25.387Z,86.25
2022-12-15T19:42:55.320Z,86.14
2022-12-15T19:45:25.409Z,86.07
2022-12-15T19:47:53.169Z,85.71
2022-12-15T19:50:23.286Z,86.05
2022-12-15T19:52:55.970Z,85.94
2022-12-15T19:55:27.526Z,86.08
2022-12-15T19:57:55.229Z,85.81
2022-12-15T20:00:24.774Z,85.77
2022-12-15T20:02:54.778Z,86.52
2022-12-15T20:05:23.947Z,86.37
2022-12-15T20:07:54.650Z,86.29
2022-12-15T20:10:31.240Z,86.33
2022-12-15T20:13:00.709Z,86.50
2022-12-15T20:15:29.030Z,86.63
2022-12-15T20:17:57.444Z,86.28
2022-12-15T20:20:26.958Z,86.67
2022-12-15T20:22:58.791Z,87.10
2022-12-15T20:25:28.868Z,86.69
2022-12-15T20:27:57.418Z,86.75
2022-12-15T20:30:27.206Z,86.65
2022-12-15T20:32:55.480Z,86.71
2022-12-15T20:35:23.512Z,87.16
2022-12-15T20:37:52.547Z,86.77
2022-12-15T20:40:23.778Z,86.73
2022-12-15T20:42:52.346Z,86.79
2022-12-15T20:45:21.908Z,86.76
2022-12-15T20:47:52.269Z,86.50
2022-12-15T20:50:26.973Z,86.77
2022-12-15T20:52:55.787Z,86.57
2022-12-15T20:55:24.800Z,86.99
2022-12-15T20:57:52.511Z,87.00
2022-12-15T21:00:23.980Z,86.90
2022-12-15T21:02:55.011Z,86.79
2022-12-15T21:05:25.393Z,86.88
2022-12-15T21:07:53.609Z,87.15
2022-12-15T21:10:22.237Z,87.07
2022-12-15T21:12:51.597Z,87.13
2022-12-15T21:15:21.810Z,87.18
2022-12-15T21:17:57.995Z,86.94
2022-12-15T21:20:39.665Z,86.82
2022-12-15T21:23:18.636Z,86.59
2022-12-15T21:25:47.191Z,86.78
2022-12-15T21:28:16.523Z,86.32
2022-12-15T21:30:44.931Z,86.40
2022-12-15T21:33:12.859Z,86.50
2022-12-15T21:35:41.601Z,86.73
2022-12-15T21:38:25.666Z,86.64
2022-12-15T21:40:59.314Z,86.50
2022-12-15T21:43:31.258Z,86.36
2022-12-15T21:45:59.696Z,86.47
2022-12-15T21:48:44.848Z,86.38
2022-12-15T21:51:15.171Z,86.10
2022-12-15T21:53:46.430Z,86.10
2022-12-15T21:56:18.143Z,86.05
2022-12-15T21:58:49.004Z,86.38
2022-12-15T22:01:19.683Z,86.05
2022-12-15T22:03:51.836Z,86.42
2022-12-15T22:06:21.645Z,86.03
2022-12-15T22:08:49.960Z,86.42
2022-12-15T22:11:22.086Z,86.24
2022-12-15T22:13:52.908Z,86.25
2022-12-15T22:16:23.670Z,85.95
2022-12-15T22:18:54.824Z,86.14
2022-12-15T22:21:23.110Z,86.35
2022-12-15T22:23:51.083Z,85.94
2022-12-15T22:26:22.727Z,86.35
2022-12-15T22:28:52.361Z,86.28
2022-12-15T22:31:22.567Z,85.83
2022-12-15T22:33:50.356Z,85.54
2022-12-15T22:36:18.042Z,86.15
2022-12-15T22:38:46.919Z,86.07
2022-12-15T22:41:19.561Z,86.06
2022-12-15T22:43:52.686Z,86.24
2022-12-15T22:46:22.874Z,86.22
2022-12-15T22:48:52.558Z,86.00
2022-12-15T22:51:22.930Z,85.70
2022-12-15T22:53:50.816Z,86.27
2022-12-15T22:56:25.618Z,86.41
2022-12-15T22:58:59.144Z,86.02
2022-12-15T23:01:28.167Z,86.43
2022-12-15T23:03:56.112Z,86.30
2022-12-15T23:06:24.220Z,86.34
2022-12-15T23:08:55.829Z,86.07
2022-12-15T23:11:38.699Z,86.00
2022-12-15T23:14:09.802Z,86.27
2022-12-15T23:16:37.989Z,85.93
2022-12-15T23:19:07.728Z,86.56
2022-12-15T23:21:36.923Z,86.08
2022-12-15T23:24:04.866Z,86.06
2022-12-15T23:26:32.816Z,86.58
2022-12-15T23:29:00.406Z,86.43
2022-12-15T23:31:29.495Z,86.33
2022-12-15T23:33:57.253Z,86.76
2022-12-15T23:36:25.094Z,86.69
2022-12-15T23:38:55.010Z,86.56
2022-12-15T23:41:22.752Z,86.66
2022-12-15T23:43:51.203Z,86.62
2022-12-15T23:46:19.653Z,86.38
2022-12-15T23:48:48.695Z,86.45
2022-12-15T23:51:17.614Z,86.80
2022-12-15T23:53:46.692Z,86.60
2022-12-15T23:56:16.349Z,86.67
2022-12-15T23:58:45.379Z,86.63
